sensor_id;sensor_type;location;lat;lon;timestamp;P1;durP1;ratioP1;P2;durP2;ratioP2
71959;SDS011;59832;51.146;14.024;2023-10-13T00:01:47;11.68;;;7.72;;
71959;SDS011;59832;51.146;14.024;2023-10-13T00:04:14;12.30;;;8.23;;
71959;SDS011;59832;51.146;14.024;2023-10-13T00:06:41;12.07;;;8.27;;
71959;SDS011;59832;51.146;14.024;2023-10-13T00:09:09;10.68;;;7.68;;
71959;SDS011;59832;51.146;14.024;2023-10-13T00:11:41;12.90;;;8.68;;
71959;SDS011;59832;51.146;14.024;2023-10-13T00:14:13;12.55;;;8.43;;
71959;SDS011;59832;51.146;14.024;2023-10-13T00:16:43;11.88;;;8.05;;
71959;SDS011;59832;51.146;14.024;2023-10-13T00:19:35;10.65;;;7.53;;
71959;SDS011;59832;51.146;14.024;2023-10-13T00:22:05;12.68;;;8.07;;
71959;SDS011;59832;51.146;14.024;2023-10-13T00:24:39;9.02;;;7.57;;
71959;SDS011;59832;51.146;14.024;2023-10-13T00:27:10;12.65;;;8.23;;
71959;SDS011;59832;51.146;14.024;2023-10-13T00:29:51;12.05;;;7.35;;
71959;SDS011;59832;51.146;14.024;2023-10-13T00:32:20;10.55;;;7.30;;
71959;SDS011;59832;51.146;14.024;2023-10-13T00:34:49;11.10;;;7.43;;
71959;SDS011;59832;51.146;14.024;2023-10-13T00:37:21;13.70;;;7.47;;
71959;SDS011;59832;51.146;14.024;2023-10-13T00:39:54;10.77;;;7.40;;
71959;SDS011;59832;51.146;14.024;2023-10-13T00:42:23;12.73;;;6.93;;
71959;SDS011;59832;51.146;14.024;2023-10-13T00:45:12;11.55;;;7.60;;
71959;SDS011;59832;51.146;14.024;2023-10-13T00:47:43;13.23;;;7.00;;
71959;SDS011;59832;51.146;14.024;2023-10-13T00:50:22;9.65;;;7.10;;
71959;SDS011;59832;51.146;14.024;2023-10-13T00:55:19;8.52;;;6.80;;
71959;SDS011;59832;51.146;14.024;2023-10-13T00:57:52;8.35;;;6.55;;
71959;SDS011;59832;51.146;14.024;2023-10-13T01:00:20;7.45;;;6.65;;
71959;SDS011;59832;51.146;14.024;2023-10-13T01:02:52;10.40;;;7.05;;
71959;SDS011;59832;51.146;14.024;2023-10-13T01:05:23;8.50;;;6.68;;
71959;SDS011;59832;51.146;14.024;2023-10-13T01:07:50;8.75;;;6.70;;
71959;SDS011;59832;51.146;14.024;2023-10-13T01:10:21;8.35;;;7.07;;
71959;SDS011;59832;51.146;14.024;2023-10-13T01:12:52;8.52;;;6.57;;
71959;SDS011;59832;51.146;14.024;2023-10-13T01:18:11;11.30;;;7.05;;
71959;SDS011;59832;51.146;14.024;2023-10-13T01:23:11;7.72;;;6.30;;
71959;SDS011;59832;51.146;14.024;2023-10-13T01:25:45;9.15;;;6.50;;
71959;SDS011;59832;51.146;14.024;2023-10-13T01:28:12;7.95;;;5.97;;
71959;SDS011;59832;51.146;14.024;2023-10-13T01:30:43;12.55;;;6.47;;
71959;SDS011;59832;51.146;14.024;2023-10-13T01:33:19;10.38;;;6.20;;
71959;SDS011;59832;51.146;14.024;2023-10-13T01:38:23;10.60;;;5.97;;
71959;SDS011;59832;51.146;14.024;2023-10-13T01:40:49;8.50;;;5.82;;
71959;SDS011;59832;51.146;14.024;2023-10-13T01:43:17;8.20;;;5.97;;
71959;SDS011;59832;51.146;14.024;2023-10-13T01:45:44;8.73;;;6.10;;
71959;SDS011;59832;51.146;14.024;2023-10-13T01:48:13;9.10;;;6.18;;
71959;SDS011;59832;51.146;14.024;2023-10-13T01:50:45;8.15;;;5.80;;
71959;SDS011;59832;51.146;14.024;2023-10-13T01:53:19;10.63;;;6.43;;
71959;SDS011;59832;51.146;14.024;2023-10-13T01:55:46;10.40;;;6.43;;
71959;SDS011;59832;51.146;14.024;2023-10-13T01:58:13;9.03;;;6.13;;
71959;SDS011;59832;51.146;14.024;2023-10-13T02:00:46;8.07;;;5.85;;
71959;SDS011;59832;51.146;14.024;2023-10-13T02:03:14;10.23;;;6.30;;
71959;SDS011;59832;51.146;14.024;2023-10-13T02:05:42;9.60;;;6.50;;
71959;SDS011;59832;51.146;14.024;2023-10-13T02:08:14;9.05;;;5.97;;
71959;SDS011;59832;51.146;14.024;2023-10-13T02:10:45;7.55;;;6.47;;
71959;SDS011;59832;51.146;14.024;2023-10-13T02:13:12;10.63;;;5.85;;
71959;SDS011;59832;51.146;14.024;2023-10-13T02:15:42;9.82;;;6.22;;
71959;SDS011;59832;51.146;14.024;2023-10-13T02:18:14;6.00;;;5.40;;
71959;SDS011;59832;51.146;14.024;2023-10-13T02:20:47;9.90;;;6.38;;
71959;SDS011;59832;51.146;14.024;2023-10-13T02:23:21;8.90;;;6.03;;
71959;SDS011;59832;51.146;14.024;2023-10-13T02:25:48;9.93;;;5.72;;
71959;SDS011;59832;51.146;14.024;2023-10-13T02:28:18;9.18;;;6.15;;
71959;SDS011;59832;51.146;14.024;2023-10-13T02:30:52;7.47;;;5.40;;
71959;SDS011;59832;51.146;14.024;2023-10-13T02:33:19;9.07;;;5.72;;
71959;SDS011;59832;51.146;14.024;2023-10-13T02:35:59;8.07;;;5.70;;
71959;SDS011;59832;51.146;14.024;2023-10-13T02:38:31;6.68;;;5.63;;
71959;SDS011;59832;51.146;14.024;2023-10-13T02:41:12;7.57;;;5.88;;
71959;SDS011;59832;51.146;14.024;2023-10-13T02:43:54;9.90;;;5.75;;
71959;SDS011;59832;51.146;14.024;2023-10-13T02:46:21;9.63;;;5.70;;
71959;SDS011;59832;51.146;14.024;2023-10-13T02:48:49;8.25;;;5.78;;
71959;SDS011;59832;51.146;14.024;2023-10-13T02:51:19;8.93;;;6.00;;
71959;SDS011;59832;51.146;14.024;2023-10-13T02:53:57;7.07;;;5.82;;
71959;SDS011;59832;51.146;14.024;2023-10-13T02:56:29;8.40;;;5.70;;
71959;SDS011;59832;51.146;14.024;2023-10-13T02:58:56;7.97;;;5.53;;
71959;SDS011;59832;51.146;14.024;2023-10-13T03:01:35;8.73;;;5.78;;
71959;SDS011;59832;51.146;14.024;2023-10-13T03:04:02;6.60;;;5.90;;
71959;SDS011;59832;51.146;14.024;2023-10-13T03:06:29;9.45;;;5.57;;
71959;SDS011;59832;51.146;14.024;2023-10-13T03:08:59;8.93;;;5.32;;
71959;SDS011;59832;51.146;14.024;2023-10-13T03:11:45;6.82;;;5.18;;
71959;SDS011;59832;51.146;14.024;2023-10-13T03:14:15;5.88;;;4.97;;
71959;SDS011;59832;51.146;14.024;2023-10-13T03:16:56;6.72;;;4.70;;
71959;SDS011;59832;51.146;14.024;2023-10-13T03:19:29;6.28;;;4.90;;
71959;SDS011;59832;51.146;14.024;2023-10-13T03:21:59;6.75;;;4.68;;
71959;SDS011;59832;51.146;14.024;2023-10-13T03:27:08;5.63;;;4.43;;
71959;SDS011;59832;51.146;14.024;2023-10-13T03:29:36;6.28;;;5.13;;
71959;SDS011;59832;51.146;14.024;2023-10-13T03:32:05;6.97;;;4.55;;
71959;SDS011;59832;51.146;14.024;2023-10-13T03:34:38;6.80;;;4.30;;
71959;SDS011;59832;51.146;14.024;2023-10-13T03:37:20;5.43;;;4.32;;
71959;SDS011;59832;51.146;14.024;2023-10-13T03:40:08;6.03;;;4.53;;
71959;SDS011;59832;51.146;14.024;2023-10-13T03:42:58;4.55;;;4.15;;
71959;SDS011;59832;51.146;14.024;2023-10-13T03:45:32;5.20;;;4.70;;
71959;SDS011;59832;51.146;14.024;2023-10-13T03:48:10;5.22;;;4.22;;
71959;SDS011;59832;51.146;14.024;2023-10-13T03:50:53;7.38;;;5.10;;
71959;SDS011;59832;51.146;14.024;2023-10-13T03:53:30;4.78;;;4.28;;
71959;SDS011;59832;51.146;14.024;2023-10-13T03:56:04;4.82;;;4.28;;
71959;SDS011;59832;51.146;14.024;2023-10-13T03:58:35;7.00;;;4.78;;
71959;SDS011;59832;51.146;14.024;2023-10-13T04:01:03;8.60;;;4.60;;
71959;SDS011;59832;51.146;14.024;2023-10-13T04:03:29;6.50;;;4.75;;
71959;SDS011;59832;51.146;14.024;2023-10-13T04:06:04;6.90;;;4.75;;
71959;SDS011;59832;51.146;14.024;2023-10-13T04:08:34;8.45;;;4.70;;
71959;SDS011;59832;51.146;14.024;2023-10-13T04:11:33;6.28;;;4.65;;
71959;SDS011;59832;51.146;14.024;2023-10-13T04:14:32;6.65;;;4.78;;
71959;SDS011;59832;51.146;14.024;2023-10-13T04:17:18;8.57;;;4.80;;
71959;SDS011;59832;51.146;14.024;2023-10-13T04:19:56;6.53;;;4.60;;
71959;SDS011;59832;51.146;14.024;2023-10-13T04:22:34;10.15;;;4.68;;
71959;SDS011;59832;51.146;14.024;2023-10-13T04:25:12;5.30;;;4.43;;
71959;SDS011;59832;51.146;14.024;2023-10-13T04:27:57;6.15;;;4.90;;
71959;SDS011;59832;51.146;14.024;2023-10-13T04:30:50;8.07;;;5.00;;
71959;SDS011;59832;51.146;14.024;2023-10-13T04:33:25;4.85;;;4.43;;
71959;SDS011;59832;51.146;14.024;2023-10-13T04:36:02;7.57;;;4.88;;
71959;SDS011;59832;51.146;14.024;2023-10-13T04:38:43;5.43;;;4.90;;
71959;SDS011;59832;51.146;14.024;2023-10-13T04:41:32;7.18;;;4.90;;
71959;SDS011;59832;51.146;14.024;2023-10-13T04:44:12;5.88;;;5.28;;
71959;SDS011;59832;51.146;14.024;2023-10-13T04:46:59;6.35;;;5.72;;
71959;SDS011;59832;51.146;14.024;2023-10-13T04:49:27;9.15;;;6.75;;
71959;SDS011;59832;51.146;14.024;2023-10-13T04:51:59;8.35;;;5.53;;
71959;SDS011;59832;51.146;14.024;2023-10-13T04:54:36;6.75;;;4.63;;
71959;SDS011;59832;51.146;14.024;2023-10-13T04:57:36;8.63;;;5.22;;
71959;SDS011;59832;51.146;14.024;2023-10-13T05:00:12;7.20;;;5.10;;
71959;SDS011;59832;51.146;14.024;2023-10-13T05:02:46;5.35;;;4.72;;
71959;SDS011;59832;51.146;14.024;2023-10-13T05:05:32;7.18;;;5.22;;
71959;SDS011;59832;51.146;14.024;2023-10-13T05:08:12;7.32;;;5.10;;
71959;SDS011;59832;51.146;14.024;2023-10-13T05:11:02;8.63;;;5.83;;
71959;SDS011;59832;51.146;14.024;2023-10-13T05:13:56;7.70;;;5.20;;
71959;SDS011;59832;51.146;14.024;2023-10-13T05:16:41;8.93;;;5.15;;
71959;SDS011;59832;51.146;14.024;2023-10-13T05:19:26;6.10;;;4.70;;
71959;SDS011;59832;51.146;14.024;2023-10-13T05:22:11;8.00;;;4.25;;
71959;SDS011;59832;51.146;14.024;2023-10-13T05:24:56;6.25;;;4.20;;
71959;SDS011;59832;51.146;14.024;2023-10-13T05:27:41;4.68;;;4.28;;
71959;SDS011;59832;51.146;14.024;2023-10-13T05:30:26;4.93;;;4.25;;
71959;SDS011;59832;51.146;14.024;2023-10-13T05:33:11;7.88;;;4.60;;
71959;SDS011;59832;51.146;14.024;2023-10-13T05:35:56;5.18;;;4.25;;
71959;SDS011;59832;51.146;14.024;2023-10-13T05:38:41;5.53;;;3.78;;
71959;SDS011;59832;51.146;14.024;2023-10-13T05:41:26;4.97;;;4.18;;
71959;SDS011;59832;51.146;14.024;2023-10-13T05:44:11;6.43;;;4.22;;
71959;SDS011;59832;51.146;14.024;2023-10-13T05:46:56;4.90;;;3.95;;
71959;SDS011;59832;51.146;14.024;2023-10-13T05:49:48;4.70;;;3.90;;
71959;SDS011;59832;51.146;14.024;2023-10-13T05:52:31;6.90;;;4.60;;
71959;SDS011;59832;51.146;14.024;2023-10-13T05:55:28;7.97;;;4.30;;
71959;SDS011;59832;51.146;14.024;2023-10-13T05:58:14;6.13;;;4.55;;
71959;SDS011;59832;51.146;14.024;2023-10-13T06:01:00;5.13;;;4.43;;
71959;SDS011;59832;51.146;14.024;2023-10-13T06:03:46;5.07;;;3.90;;
71959;SDS011;59832;51.146;14.024;2023-10-13T06:06:31;4.97;;;4.47;;
71959;SDS011;59832;51.146;14.024;2023-10-13T06:09:16;5.68;;;4.57;;
71959;SDS011;59832;51.146;14.024;2023-10-13T06:12:01;5.57;;;4.63;;
71959;SDS011;59832;51.146;14.024;2023-10-13T06:14:46;6.55;;;4.90;;
71959;SDS011;59832;51.146;14.024;2023-10-13T06:17:31;6.75;;;5.15;;
71959;SDS011;59832;51.146;14.024;2023-10-13T06:20:30;7.60;;;5.78;;
71959;SDS011;59832;51.146;14.024;2023-10-13T06:23:15;7.57;;;6.78;;
71959;SDS011;59832;51.146;14.024;2023-10-13T06:26:00;10.25;;;7.93;;
71959;SDS011;59832;51.146;14.024;2023-10-13T06:28:44;12.98;;;8.40;;
71959;SDS011;59832;51.146;14.024;2023-10-13T06:31:12;10.30;;;8.18;;
71959;SDS011;59832;51.146;14.024;2023-10-13T06:33:48;10.15;;;8.63;;
71959;SDS011;59832;51.146;14.024;2023-10-13T06:36:15;13.32;;;9.07;;
71959;SDS011;59832;51.146;14.024;2023-10-13T06:38:44;14.95;;;9.52;;
71959;SDS011;59832;51.146;14.024;2023-10-13T06:41:10;13.82;;;9.43;;
71959;SDS011;59832;51.146;14.024;2023-10-13T06:43:46;10.35;;;9.13;;
71959;SDS011;59832;51.146;14.024;2023-10-13T06:46:26;12.25;;;9.13;;
71959;SDS011;59832;51.146;14.024;2023-10-13T06:48:55;11.18;;;9.57;;
71959;SDS011;59832;51.146;14.024;2023-10-13T06:51:26;13.38;;;9.63;;
71959;SDS011;59832;51.146;14.024;2023-10-13T06:53:57;16.88;;;10.02;;
71959;SDS011;59832;51.146;14.024;2023-10-13T06:56:23;13.37;;;10.47;;
71959;SDS011;59832;51.146;14.024;2023-10-13T06:58:56;12.65;;;10.60;;
71959;SDS011;59832;51.146;14.024;2023-10-13T07:01:26;12.40;;;10.60;;
71959;SDS011;59832;51.146;14.024;2023-10-13T07:03:54;12.48;;;10.65;;
71959;SDS011;59832;51.146;14.024;2023-10-13T07:06:22;12.70;;;10.38;;
71959;SDS011;59832;51.146;14.024;2023-10-13T07:08:48;11.75;;;10.55;;
71959;SDS011;59832;51.146;14.024;2023-10-13T07:11:19;12.52;;;11.18;;
71959;SDS011;59832;51.146;14.024;2023-10-13T07:14:02;11.38;;;9.63;;
71959;SDS011;59832;51.146;14.024;2023-10-13T07:16:44;19.67;;;11.18;;
71959;SDS011;59832;51.146;14.024;2023-10-13T07:19:27;11.27;;;9.90;;
71959;SDS011;59832;51.146;14.024;2023-10-13T07:21:55;11.05;;;9.85;;
71959;SDS011;59832;51.146;14.024;2023-10-13T07:24:26;16.15;;;10.20;;
71959;SDS011;59832;51.146;14.024;2023-10-13T07:27:01;11.50;;;9.05;;
71959;SDS011;59832;51.146;14.024;2023-10-13T07:29:32;9.52;;;8.55;;
71959;SDS011;59832;51.146;14.024;2023-10-13T07:32:02;9.95;;;8.55;;
71959;SDS011;59832;51.146;14.024;2023-10-13T07:34:29;9.15;;;8.25;;
71959;SDS011;59832;51.146;14.024;2023-10-13T07:36:58;9.63;;;8.13;;
71959;SDS011;59832;51.146;14.024;2023-10-13T07:39:29;9.25;;;7.85;;
71959;SDS011;59832;51.146;14.024;2023-10-13T07:42:01;10.13;;;7.50;;
71959;SDS011;59832;51.146;14.024;2023-10-13T07:44:32;9.48;;;8.10;;
71959;SDS011;59832;51.146;14.024;2023-10-13T07:47:00;8.65;;;7.85;;
71959;SDS011;59832;51.146;14.024;2023-10-13T07:49:31;10.27;;;7.85;;
71959;SDS011;59832;51.146;14.024;2023-10-13T07:52:03;8.98;;;7.90;;
71959;SDS011;59832;51.146;14.024;2023-10-13T07:55:01;9.75;;;7.38;;
71959;SDS011;59832;51.146;14.024;2023-10-13T07:57:48;10.95;;;7.80;;
71959;SDS011;59832;51.146;14.024;2023-10-13T08:00:21;7.80;;;6.97;;
71959;SDS011;59832;51.146;14.024;2023-10-13T08:03:04;8.30;;;7.45;;
71959;SDS011;59832;51.146;14.024;2023-10-13T08:05:36;8.20;;;7.40;;
71959;SDS011;59832;51.146;14.024;2023-10-13T08:08:21;9.77;;;7.88;;
71959;SDS011;59832;51.146;14.024;2023-10-13T08:10:52;9.15;;;7.25;;
71959;SDS011;59832;51.146;14.024;2023-10-13T08:13:22;11.70;;;7.55;;
71959;SDS011;59832;51.146;14.024;2023-10-13T08:15:49;9.10;;;7.47;;
71959;SDS011;59832;51.146;14.024;2023-10-13T08:18:19;10.10;;;7.05;;
71959;SDS011;59832;51.146;14.024;2023-10-13T08:21:02;8.50;;;6.93;;
71959;SDS011;59832;51.146;14.024;2023-10-13T08:23:30;10.10;;;7.20;;
71959;SDS011;59832;51.146;14.024;2023-10-13T08:26:23;8.60;;;6.78;;
71959;SDS011;59832;51.146;14.024;2023-10-13T08:29:17;8.55;;;6.85;;
71959;SDS011;59832;51.146;14.024;2023-10-13T08:31:50;9.80;;;6.97;;
71959;SDS011;59832;51.146;14.024;2023-10-13T08:34:30;10.32;;;6.93;;
71959;SDS011;59832;51.146;14.024;2023-10-13T08:37:05;8.15;;;6.95;;
71959;SDS011;59832;51.146;14.024;2023-10-13T08:39:46;8.43;;;6.72;;
71959;SDS011;59832;51.146;14.024;2023-10-13T08:42:47;8.77;;;6.78;;
71959;SDS011;59832;51.146;14.024;2023-10-13T08:45:36;8.60;;;7.50;;
71959;SDS011;59832;51.146;14.024;2023-10-13T08:48:03;8.57;;;6.85;;
71959;SDS011;59832;51.146;14.024;2023-10-13T08:53:18;6.60;;;6.00;;
71959;SDS011;59832;51.146;14.024;2023-10-13T08:55:58;5.95;;;5.35;;
71959;SDS011;59832;51.146;14.024;2023-10-13T08:58:45;6.30;;;5.70;;
71959;SDS011;59832;51.146;14.024;2023-10-13T09:01:41;6.43;;;5.18;;
71959;SDS011;59832;51.146;14.024;2023-10-13T09:04:26;7.78;;;6.18;;
71959;SDS011;59832;51.146;14.024;2023-10-13T09:07:01;10.13;;;6.20;;
71959;SDS011;59832;51.146;14.024;2023-10-13T09:09:33;7.43;;;6.30;;
71959;SDS011;59832;51.146;14.024;2023-10-13T09:14:40;7.30;;;6.35;;
71959;SDS011;59832;51.146;14.024;2023-10-13T09:17:11;8.05;;;6.20;;
71959;SDS011;59832;51.146;14.024;2023-10-13T09:19:59;7.63;;;6.05;;
71959;SDS011;59832;51.146;14.024;2023-10-13T09:23:12;6.35;;;5.85;;
71959;SDS011;59832;51.146;14.024;2023-10-13T09:25:50;8.90;;;6.20;;
71959;SDS011;59832;51.146;14.024;2023-10-13T09:28:24;9.10;;;5.93;;
71959;SDS011;59832;51.146;14.024;2023-10-13T09:30:55;7.32;;;6.55;;
71959;SDS011;59832;51.146;14.024;2023-10-13T09:36:19;8.25;;;6.88;;
71959;SDS011;59832;51.146;14.024;2023-10-13T09:38:47;8.50;;;6.90;;
71959;SDS011;59832;51.146;14.024;2023-10-13T09:44:04;7.95;;;7.15;;
71959;SDS011;59832;51.146;14.024;2023-10-13T09:46:30;9.60;;;7.28;;
71959;SDS011;59832;51.146;14.024;2023-10-13T09:49:05;9.25;;;7.40;;
71959;SDS011;59832;51.146;14.024;2023-10-13T09:51:41;10.45;;;7.43;;
71959;SDS011;59832;51.146;14.024;2023-10-13T09:54:18;8.13;;;7.35;;
71959;SDS011;59832;51.146;14.024;2023-10-13T09:57:04;8.63;;;7.82;;
71959;SDS011;59832;51.146;14.024;2023-10-13T09:59:44;8.38;;;7.57;;
71959;SDS011;59832;51.146;14.024;2023-10-13T10:02:18;9.57;;;8.20;;
71959;SDS011;59832;51.146;14.024;2023-10-13T10:04:55;12.90;;;8.25;;
71959;SDS011;59832;51.146;14.024;2023-10-13T10:07:40;9.43;;;8.43;;
71959;SDS011;59832;51.146;14.024;2023-10-13T10:10:10;9.13;;;8.32;;
71959;SDS011;59832;51.146;14.024;2023-10-13T10:12:50;9.23;;;8.25;;
71959;SDS011;59832;51.146;14.024;2023-10-13T10:18:19;10.93;;;9.10;;
71959;SDS011;59832;51.146;14.024;2023-10-13T10:21:02;12.25;;;9.68;;
71959;SDS011;59832;51.146;14.024;2023-10-13T10:23:33;13.23;;;10.05;;
71959;SDS011;59832;51.146;14.024;2023-10-13T10:26:09;13.73;;;10.13;;
71959;SDS011;59832;51.146;14.024;2023-10-13T10:28:46;11.20;;;9.15;;
71959;SDS011;59832;51.146;14.024;2023-10-13T10:31:13;10.68;;;9.68;;
71959;SDS011;59832;51.146;14.024;2023-10-13T10:33:48;12.93;;;10.27;;
71959;SDS011;59832;51.146;14.024;2023-10-13T10:36:22;13.27;;;10.60;;
71959;SDS011;59832;51.146;14.024;2023-10-13T10:38:56;11.52;;;10.15;;
71959;SDS011;59832;51.146;14.024;2023-10-13T10:41:27;11.73;;;10.52;;
71959;SDS011;59832;51.146;14.024;2023-10-13T10:44:15;10.98;;;9.88;;
71959;SDS011;59832;51.146;14.024;2023-10-13T10:46:43;13.07;;;10.43;;
71959;SDS011;59832;51.146;14.024;2023-10-13T10:49:25;13.75;;;10.45;;
71959;SDS011;59832;51.146;14.024;2023-10-13T10:51:57;13.10;;;10.35;;
71959;SDS011;59832;51.146;14.024;2023-10-13T10:54:27;13.10;;;10.00;;
71959;SDS011;59832;51.146;14.024;2023-10-13T10:56:58;14.00;;;9.73;;
71959;SDS011;59832;51.146;14.024;2023-10-13T10:59:40;13.80;;;9.95;;
71959;SDS011;59832;51.146;14.024;2023-10-13T11:02:06;11.18;;;9.90;;
71959;SDS011;59832;51.146;14.024;2023-10-13T11:04:35;11.98;;;9.98;;
71959;SDS011;59832;51.146;14.024;2023-10-13T11:07:07;11.95;;;9.40;;
71959;SDS011;59832;51.146;14.024;2023-10-13T11:09:35;15.32;;;10.43;;
71959;SDS011;59832;51.146;14.024;2023-10-13T11:12:13;16.00;;;10.68;;
71959;SDS011;59832;51.146;14.024;2023-10-13T11:15:04;14.05;;;11.02;;
71959;SDS011;59832;51.146;14.024;2023-10-13T11:17:41;13.43;;;10.75;;
71959;SDS011;59832;51.146;14.024;2023-10-13T11:20:25;13.90;;;10.82;;
71959;SDS011;59832;51.146;14.024;2023-10-13T11:22:52;16.80;;;11.60;;
71959;SDS011;59832;51.146;14.024;2023-10-13T11:25:20;13.70;;;11.85;;
71959;SDS011;59832;51.146;14.024;2023-10-13T11:27:57;13.38;;;11.35;;
71959;SDS011;59832;51.146;14.024;2023-10-13T11:30:32;12.40;;;11.17;;
71959;SDS011;59832;51.146;14.024;2023-10-13T11:33:06;12.63;;;11.23;;
71959;SDS011;59832;51.146;14.024;2023-10-13T11:35:34;14.90;;;11.20;;
71959;SDS011;59832;51.146;14.024;2023-10-13T11:38:20;12.20;;;10.40;;
71959;SDS011;59832;51.146;14.024;2023-10-13T11:40:55;16.15;;;11.23;;
71959;SDS011;59832;51.146;14.024;2023-10-13T11:43:32;12.15;;;10.95;;
71959;SDS011;59832;51.146;14.024;2023-10-13T11:48:36;12.52;;;11.05;;
71959;SDS011;59832;51.146;14.024;2023-10-13T11:51:04;13.65;;;11.02;;
71959;SDS011;59832;51.146;14.024;2023-10-13T11:53:44;13.07;;;10.73;;
71959;SDS011;59832;51.146;14.024;2023-10-13T11:56:18;16.42;;;11.55;;
71959;SDS011;59832;51.146;14.024;2023-10-13T11:58:48;12.93;;;10.50;;
71959;SDS011;59832;51.146;14.024;2023-10-13T12:01:15;18.55;;;10.70;;
71959;SDS011;59832;51.146;14.024;2023-10-13T12:03:45;13.70;;;10.20;;
71959;SDS011;59832;51.146;14.024;2023-10-13T12:06:32;12.40;;;10.10;;
71959;SDS011;59832;51.146;14.024;2023-10-13T12:11:42;15.02;;;10.73;;
71959;SDS011;59832;51.146;14.024;2023-10-13T12:14:14;13.95;;;10.77;;
71959;SDS011;59832;51.146;14.024;2023-10-13T12:16:46;14.82;;;10.23;;
71959;SDS011;59832;51.146;14.024;2023-10-13T12:19:19;17.40;;;9.77;;
71959;SDS011;59832;51.146;14.024;2023-10-13T12:21:50;13.70;;;8.80;;
71959;SDS011;59832;51.146;14.024;2023-10-13T12:24:21;10.85;;;8.77;;
71959;SDS011;59832;51.146;14.024;2023-10-13T12:27:03;10.40;;;7.90;;
71959;SDS011;59832;51.146;14.024;2023-10-13T12:34:40;11.35;;;7.50;;
71959;SDS011;59832;51.146;14.024;2023-10-13T12:37:26;12.45;;;7.05;;
71959;SDS011;59832;51.146;14.024;2023-10-13T12:40:07;13.98;;;7.07;;
71959;SDS011;59832;51.146;14.024;2023-10-13T12:42:53;11.18;;;6.78;;
71959;SDS011;59832;51.146;14.024;2023-10-13T12:45:39;13.48;;;6.22;;
71959;SDS011;59832;51.146;14.024;2023-10-13T12:48:24;12.40;;;6.28;;
71959;SDS011;59832;51.146;14.024;2023-10-13T12:51:09;14.98;;;6.75;;
71959;SDS011;59832;51.146;14.024;2023-10-13T12:53:55;11.13;;;6.20;;
71959;SDS011;59832;51.146;14.024;2023-10-13T12:56:30;14.23;;;6.13;;
71959;SDS011;59832;51.146;14.024;2023-10-13T12:58:57;12.82;;;6.07;;
71959;SDS011;59832;51.146;14.024;2023-10-13T13:01:24;10.45;;;5.85;;
71959;SDS011;59832;51.146;14.024;2023-10-13T13:03:52;11.20;;;5.45;;
71959;SDS011;59832;51.146;14.024;2023-10-13T13:06:23;13.85;;;5.32;;
71959;SDS011;59832;51.146;14.024;2023-10-13T13:08:57;10.93;;;5.85;;
71959;SDS011;59832;51.146;14.024;2023-10-13T13:11:25;8.82;;;4.95;;
71959;SDS011;59832;51.146;14.024;2023-10-13T13:13:52;10.32;;;5.22;;
71959;SDS011;59832;51.146;14.024;2023-10-13T13:16:19;16.60;;;6.03;;
71959;SDS011;59832;51.146;14.024;2023-10-13T13:18:50;7.85;;;4.75;;
71959;SDS011;59832;51.146;14.024;2023-10-13T13:21:17;10.20;;;4.70;;
71959;SDS011;59832;51.146;14.024;2023-10-13T13:23:49;15.38;;;5.65;;
71959;SDS011;59832;51.146;14.024;2023-10-13T13:26:16;11.95;;;5.25;;
71959;SDS011;59832;51.146;14.024;2023-10-13T13:31:11;8.73;;;5.10;;
71959;SDS011;59832;51.146;14.024;2023-10-13T13:33:41;11.25;;;5.20;;
71959;SDS011;59832;51.146;14.024;2023-10-13T13:36:12;12.70;;;4.60;;
71959;SDS011;59832;51.146;14.024;2023-10-13T13:38:42;12.38;;;4.95;;
71959;SDS011;59832;51.146;14.024;2023-10-13T13:41:16;6.55;;;4.53;;
71959;SDS011;59832;51.146;14.024;2023-10-13T13:43:47;11.25;;;4.45;;
71959;SDS011;59832;51.146;14.024;2023-10-13T13:46:27;13.82;;;4.78;;
71959;SDS011;59832;51.146;14.024;2023-10-13T13:48:56;8.43;;;4.60;;
71959;SDS011;59832;51.146;14.024;2023-10-13T13:51:27;8.50;;;4.32;;
71959;SDS011;59832;51.146;14.024;2023-10-13T13:53:55;10.27;;;4.13;;
71959;SDS011;59832;51.146;14.024;2023-10-13T13:56:22;10.30;;;4.63;;
71959;SDS011;59832;51.146;14.024;2023-10-13T13:58:52;14.27;;;4.78;;
71959;SDS011;59832;51.146;14.024;2023-10-13T14:01:33;8.73;;;4.50;;
71959;SDS011;59832;51.146;14.024;2023-10-13T14:04:03;7.78;;;4.05;;
71959;SDS011;59832;51.146;14.024;2023-10-13T14:06:33;13.63;;;4.68;;
71959;SDS011;59832;51.146;14.024;2023-10-13T14:09:00;7.57;;;4.15;;
71959;SDS011;59832;51.146;14.024;2023-10-13T14:11:58;9.90;;;4.45;;
71959;SDS011;59832;51.146;14.024;2023-10-13T14:14:44;11.60;;;4.70;;
71959;SDS011;59832;51.146;14.024;2023-10-13T14:17:24;8.73;;;4.13;;
71959;SDS011;59832;51.146;14.024;2023-10-13T14:19:56;11.93;;;4.72;;
71959;SDS011;59832;51.146;14.024;2023-10-13T14:22:23;13.82;;;4.57;;
71959;SDS011;59832;51.146;14.024;2023-10-13T14:24:51;12.10;;;4.80;;
71959;SDS011;59832;51.146;14.024;2023-10-13T14:27:21;9.38;;;4.50;;
71959;SDS011;59832;51.146;14.024;2023-10-13T14:29:49;9.30;;;4.30;;
71959;SDS011;59832;51.146;14.024;2023-10-13T14:32:19;12.10;;;4.53;;
71959;SDS011;59832;51.146;14.024;2023-10-13T14:34:50;12.05;;;4.47;;
71959;SDS011;59832;51.146;14.024;2023-10-13T14:37:23;12.55;;;4.55;;
71959;SDS011;59832;51.146;14.024;2023-10-13T14:39:55;8.82;;;4.70;;
71959;SDS011;59832;51.146;14.024;2023-10-13T14:42:26;13.65;;;4.90;;
71959;SDS011;59832;51.146;14.024;2023-10-13T14:44:53;8.35;;;4.50;;
71959;SDS011;59832;51.146;14.024;2023-10-13T14:47:23;14.00;;;4.50;;
71959;SDS011;59832;51.146;14.024;2023-10-13T14:49:52;11.98;;;4.80;;
71959;SDS011;59832;51.146;14.024;2023-10-13T14:52:21;13.15;;;4.47;;
71959;SDS011;59832;51.146;14.024;2023-10-13T14:54:48;10.82;;;4.60;;
71959;SDS011;59832;51.146;14.024;2023-10-13T14:57:24;11.20;;;4.28;;
71959;SDS011;59832;51.146;14.024;2023-10-13T14:59:54;9.65;;;4.03;;
71959;SDS011;59832;51.146;14.024;2023-10-13T15:02:21;8.25;;;4.15;;
71959;SDS011;59832;51.146;14.024;2023-10-13T15:04:48;9.52;;;4.38;;
71959;SDS011;59832;51.146;14.024;2023-10-13T15:07:15;8.63;;;3.63;;
71959;SDS011;59832;51.146;14.024;2023-10-13T15:09:43;14.15;;;4.90;;
71959;SDS011;59832;51.146;14.024;2023-10-13T15:12:10;9.45;;;4.30;;
71959;SDS011;59832;51.146;14.024;2023-10-13T15:14:39;8.50;;;4.20;;
71959;SDS011;59832;51.146;14.024;2023-10-13T15:17:09;13.77;;;3.90;;
71959;SDS011;59832;51.146;14.024;2023-10-13T15:19:36;11.93;;;4.20;;
71959;SDS011;59832;51.146;14.024;2023-10-13T15:22:05;12.15;;;4.55;;
71959;SDS011;59832;51.146;14.024;2023-10-13T15:24:39;12.20;;;4.32;;
71959;SDS011;59832;51.146;14.024;2023-10-13T15:27:11;8.95;;;3.90;;
71959;SDS011;59832;51.146;14.024;2023-10-13T15:29:38;12.55;;;4.15;;
71959;SDS011;59832;51.146;14.024;2023-10-13T15:32:04;11.85;;;4.13;;
71959;SDS011;59832;51.146;14.024;2023-10-13T15:34:52;12.18;;;3.97;;
71959;SDS011;59832;51.146;14.024;2023-10-13T15:37:19;8.63;;;3.88;;
71959;SDS011;59832;51.146;14.024;2023-10-13T15:39:46;10.32;;;4.35;;
71959;SDS011;59832;51.146;14.024;2023-10-13T15:42:12;11.60;;;4.40;;
71959;SDS011;59832;51.146;14.024;2023-10-13T15:44:40;16.85;;;4.38;;
71959;SDS011;59832;51.146;14.024;2023-10-13T15:47:09;11.93;;;4.18;;
71959;SDS011;59832;51.146;14.024;2023-10-13T15:49:41;9.10;;;4.53;;
71959;SDS011;59832;51.146;14.024;2023-10-13T15:52:08;10.40;;;3.90;;